sensor_id;sensor_type;location;lat;lon;timestamp;P1;durP1;ratioP1;P2;durP2;ratioP2
51194;SDS011;37259;49.972;19.850;2023-09-19T00:00:35;14.2;;;10.4;;
51194;SDS011;37259;49.972;19.850;2023-09-19T00:01:35;14.2;;;10.4;;
51194;SDS011;37259;49.972;19.850;2023-09-19T00:02:35;14.2;;;10.4;;
51194;SDS011;37259;49.972;19.850;2023-09-19T00:03:35;14.2;;;10.4;;
51194;SDS011;37259;49.972;19.850;2023-09-19T00:04:35;14.2;;;10.4;;
51194;SDS011;37259;49.972;19.850;2023-09-19T00:05:36;14.2;;;10.4;;
51194;SDS011;37259;49.972;19.850;2023-09-19T00:06:36;14.2;;;10.4;;
51194;SDS011;37259;49.972;19.850;2023-09-19T00:07:35;14.2;;;10.4;;
51194;SDS011;37259;49.972;19.850;2023-09-19T00:08:35;14.2;;;10.4;;
51194;SDS011;37259;49.972;19.850;2023-09-19T00:09:35;14.2;;;10.4;;
51194;SDS011;37259;49.972;19.850;2023-09-19T00:10:35;14.2;;;10.4;;
51194;SDS011;37259;49.972;19.850;2023-09-19T00:11:35;14.2;;;10.4;;
51194;SDS011;37259;49.972;19.850;2023-09-19T00:12:35;14.2;;;10.4;;
51194;SDS011;37259;49.972;19.850;2023-09-19T00:13:35;14.2;;;10.4;;
51194;SDS011;37259;49.972;19.850;2023-09-19T00:14:35;14.2;;;10.4;;
51194;SDS011;37259;49.972;19.850;2023-09-19T00:15:36;14.2;;;10.4;;
51194;SDS011;37259;49.972;19.850;2023-09-19T00:16:35;14.2;;;10.4;;
51194;SDS011;37259;49.972;19.850;2023-09-19T00:17:35;14.2;;;10.4;;
51194;SDS011;37259;49.972;19.850;2023-09-19T00:18:35;14.2;;;10.4;;
51194;SDS011;37259;49.972;19.850;2023-09-19T00:19:35;14.2;;;10.4;;
51194;SDS011;37259;49.972;19.850;2023-09-19T00:20:35;14.2;;;10.4;;
51194;SDS011;37259;49.972;19.850;2023-09-19T00:21:35;14.2;;;10.4;;
51194;SDS011;37259;49.972;19.850;2023-09-19T00:22:35;14.2;;;10.4;;
51194;SDS011;37259;49.972;19.850;2023-09-19T00:23:35;14.2;;;10.4;;
51194;SDS011;37259;49.972;19.850;2023-09-19T00:24:35;14.2;;;10.4;;
51194;SDS011;37259;49.972;19.850;2023-09-19T00:25:35;14.2;;;10.4;;
51194;SDS011;37259;49.972;19.850;2023-09-19T00:26:35;14.2;;;10.4;;
51194;SDS011;37259;49.972;19.850;2023-09-19T00:27:35;14.2;;;10.4;;
51194;SDS011;37259;49.972;19.850;2023-09-19T00:28:35;14.2;;;10.4;;
51194;SDS011;37259;49.972;19.850;2023-09-19T00:29:35;16;;;11.2;;
51194;SDS011;37259;49.972;19.850;2023-09-19T00:30:35;16;;;11.2;;
51194;SDS011;37259;49.972;19.850;2023-09-19T00:31:35;16;;;11.2;;
51194;SDS011;37259;49.972;19.850;2023-09-19T00:32:35;16;;;11.2;;
51194;SDS011;37259;49.972;19.850;2023-09-19T00:33:35;16;;;11.2;;
51194;SDS011;37259;49.972;19.850;2023-09-19T00:34:35;16;;;11.2;;
51194;SDS011;37259;49.972;19.850;2023-09-19T00:35:35;16;;;11.2;;
51194;SDS011;37259;49.972;19.850;2023-09-19T00:36:35;16;;;11.2;;
51194;SDS011;37259;49.972;19.850;2023-09-19T00:37:35;16;;;11.2;;
51194;SDS011;37259;49.972;19.850;2023-09-19T00:38:35;16;;;11.2;;
51194;SDS011;37259;49.972;19.850;2023-09-19T00:39:35;16;;;11.2;;
51194;SDS011;37259;49.972;19.850;2023-09-19T00:40:35;16;;;11.2;;
51194;SDS011;37259;49.972;19.850;2023-09-19T00:41:35;16;;;11.2;;
51194;SDS011;37259;49.972;19.850;2023-09-19T00:42:35;16;;;11.2;;
51194;SDS011;37259;49.972;19.850;2023-09-19T00:43:35;16;;;11.2;;
51194;SDS011;37259;49.972;19.850;2023-09-19T00:44:35;16;;;11.2;;
51194;SDS011;37259;49.972;19.850;2023-09-19T00:45:35;16;;;11.2;;
51194;SDS011;37259;49.972;19.850;2023-09-19T00:46:35;16;;;11.2;;
51194;SDS011;37259;49.972;19.850;2023-09-19T00:47:35;16;;;11.2;;
51194;SDS011;37259;49.972;19.850;2023-09-19T00:48:37;16;;;11.2;;
51194;SDS011;37259;49.972;19.850;2023-09-19T00:49:35;16;;;11.2;;
51194;SDS011;37259;49.972;19.850;2023-09-19T00:50:35;16;;;11.2;;
51194;SDS011;37259;49.972;19.850;2023-09-19T00:51:35;16;;;11.2;;
51194;SDS011;37259;49.972;19.850;2023-09-19T00:52:35;16;;;11.2;;
51194;SDS011;37259;49.972;19.850;2023-09-19T00:53:35;16;;;11.2;;
51194;SDS011;37259;49.972;19.850;2023-09-19T00:54:35;16;;;11.2;;
51194;SDS011;37259;49.972;19.850;2023-09-19T00:55:35;16;;;11.2;;
51194;SDS011;37259;49.972;19.850;2023-09-19T00:56:35;16;;;11.2;;
51194;SDS011;37259;49.972;19.850;2023-09-19T00:57:36;16;;;11.2;;
51194;SDS011;37259;49.972;19.850;2023-09-19T00:58:35;16;;;11.2;;
51194;SDS011;37259;49.972;19.850;2023-09-19T00:59:35;15.8;;;11.1;;
51194;SDS011;37259;49.972;19.850;2023-09-19T01:00:35;15.8;;;11.1;;
51194;SDS011;37259;49.972;19.850;2023-09-19T01:01:35;15.8;;;11.1;;
51194;SDS011;37259;49.972;19.850;2023-09-19T01:02:35;15.8;;;11.1;;
51194;SDS011;37259;49.972;19.850;2023-09-19T01:03:35;15.8;;;11.1;;
51194;SDS011;37259;49.972;19.850;2023-09-19T01:04:35;15.8;;;11.1;;
51194;SDS011;37259;49.972;19.850;2023-09-19T01:05:35;15.8;;;11.1;;
51194;SDS011;37259;49.972;19.850;2023-09-19T01:06:35;15.8;;;11.1;;
51194;SDS011;37259;49.972;19.850;2023-09-19T01:07:35;15.8;;;11.1;;
51194;SDS011;37259;49.972;19.850;2023-09-19T01:08:35;15.8;;;11.1;;
51194;SDS011;37259;49.972;19.850;2023-09-19T01:09:35;15.8;;;11.1;;
51194;SDS011;37259;49.972;19.850;2023-09-19T01:10:35;15.8;;;11.1;;
51194;SDS011;37259;49.972;19.850;2023-09-19T01:11:36;15.8;;;11.1;;
51194;SDS011;37259;49.972;19.850;2023-09-19T01:12:37;15.8;;;11.1;;
51194;SDS011;37259;49.972;19.850;2023-09-19T01:13:39;15.8;;;11.1;;
51194;SDS011;37259;49.972;19.850;2023-09-19T01:14:38;15.8;;;11.1;;
51194;SDS011;37259;49.972;19.850;2023-09-19T01:15:38;15.8;;;11.1;;
51194;SDS011;37259;49.972;19.850;2023-09-19T01:16:36;15.8;;;11.1;;
51194;SDS011;37259;49.972;19.850;2023-09-19T01:17:38;15.8;;;11.1;;
51194;SDS011;37259;49.972;19.850;2023-09-19T01:18:36;15.8;;;11.1;;
51194;SDS011;37259;49.972;19.850;2023-09-19T01:19:44;15.8;;;11.1;;
51194;SDS011;37259;49.972;19.850;2023-09-19T01:20:37;15.8;;;11.1;;
51194;SDS011;37259;49.972;19.850;2023-09-19T01:21:36;15.8;;;11.1;;
51194;SDS011;37259;49.972;19.850;2023-09-19T01:22:37;15.8;;;11.1;;
51194;SDS011;37259;49.972;19.850;2023-09-19T01:23:39;15.8;;;11.1;;
51194;SDS011;37259;49.972;19.850;2023-09-19T01:24:45;15.8;;;11.1;;
51194;SDS011;37259;49.972;19.850;2023-09-19T01:25:42;15.8;;;11.1;;
51194;SDS011;37259;49.972;19.850;2023-09-19T01:26:43;15.8;;;11.1;;
51194;SDS011;37259;49.972;19.850;2023-09-19T01:27:43;15.8;;;11.1;;
51194;SDS011;37259;49.972;19.850;2023-09-19T01:28:40;15.8;;;11.1;;
51194;SDS011;37259;49.972;19.850;2023-09-19T01:29:37;15.2;;;9.3;;
51194;SDS011;37259;49.972;19.850;2023-09-19T01:30:35;15.2;;;9.3;;
51194;SDS011;37259;49.972;19.850;2023-09-19T01:31:35;15.2;;;9.3;;
51194;SDS011;37259;49.972;19.850;2023-09-19T01:32:35;15.2;;;9.3;;
51194;SDS011;37259;49.972;19.850;2023-09-19T01:34:07;15.2;;;9.3;;
51194;SDS011;37259;49.972;19.850;2023-09-19T01:34:43;15.2;;;9.3;;
51194;SDS011;37259;49.972;19.850;2023-09-19T01:35:35;15.2;;;9.3;;
51194;SDS011;37259;49.972;19.850;2023-09-19T01:36:36;15.2;;;9.3;;
51194;SDS011;37259;49.972;19.850;2023-09-19T01:37:35;15.2;;;9.3;;
51194;SDS011;37259;49.972;19.850;2023-09-19T01:38:35;15.2;;;9.3;;
51194;SDS011;37259;49.972;19.850;2023-09-19T01:39:35;15.2;;;9.3;;
51194;SDS011;37259;49.972;19.850;2023-09-19T01:40:37;15.2;;;9.3;;
51194;SDS011;37259;49.972;19.850;2023-09-19T01:41:47;15.2;;;9.3;;
51194;SDS011;37259;49.972;19.850;2023-09-19T01:42:37;15.2;;;9.3;;
51194;SDS011;37259;49.972;19.850;2023-09-19T01:43:36;15.2;;;9.3;;
51194;SDS011;37259;49.972;19.850;2023-09-19T01:44:37;15.2;;;9.3;;
51194;SDS011;37259;49.972;19.850;2023-09-19T01:45:37;15.2;;;9.3;;
51194;SDS011;37259;49.972;19.850;2023-09-19T01:46:36;15.2;;;9.3;;
51194;SDS011;37259;49.972;19.850;2023-09-19T01:47:35;15.2;;;9.3;;
51194;SDS011;37259;49.972;19.850;2023-09-19T01:48:38;15.2;;;9.3;;
51194;SDS011;37259;49.972;19.850;2023-09-19T01:49:37;15.2;;;9.3;;
51194;SDS011;37259;49.972;19.850;2023-09-19T01:50:38;15.2;;;9.3;;
51194;SDS011;37259;49.972;19.850;2023-09-19T01:51:37;15.2;;;9.3;;
51194;SDS011;37259;49.972;19.850;2023-09-19T01:52:36;15.2;;;9.3;;
51194;SDS011;37259;49.972;19.850;2023-09-19T01:53:36;15.2;;;9.3;;
51194;SDS011;37259;49.972;19.850;2023-09-19T01:54:36;15.2;;;9.3;;
51194;SDS011;37259;49.972;19.850;2023-09-19T01:55:36;15.2;;;9.3;;
51194;SDS011;37259;49.972;19.850;2023-09-19T01:56:36;15.2;;;9.3;;
51194;SDS011;37259;49.972;19.850;2023-09-19T01:57:37;15.2;;;9.3;;
51194;SDS011;37259;49.972;19.850;2023-09-19T01:58:37;15.2;;;9.3;;
51194;SDS011;37259;49.972;19.850;2023-09-19T01:59:36;14.2;;;9.4;;
51194;SDS011;37259;49.972;19.850;2023-09-19T02:00:36;14.2;;;9.4;;
51194;SDS011;37259;49.972;19.850;2023-09-19T02:01:35;14.2;;;9.4;;
51194;SDS011;37259;49.972;19.850;2023-09-19T02:02:36;14.2;;;9.4;;
51194;SDS011;37259;49.972;19.850;2023-09-19T02:03:35;14.2;;;9.4;;
51194;SDS011;37259;49.972;19.850;2023-09-19T02:04:35;14.2;;;9.4;;
51194;SDS011;37259;49.972;19.850;2023-09-19T02:05:35;14.2;;;9.4;;
51194;SDS011;37259;49.972;19.850;2023-09-19T02:06:35;14.2;;;9.4;;
51194;SDS011;37259;49.972;19.850;2023-09-19T02:07:35;14.2;;;9.4;;
51194;SDS011;37259;49.972;19.850;2023-09-19T02:08:35;14.2;;;9.4;;
51194;SDS011;37259;49.972;19.850;2023-09-19T02:09:35;14.2;;;9.4;;
51194;SDS011;37259;49.972;19.850;2023-09-19T02:10:35;14.2;;;9.4;;
51194;SDS011;37259;49.972;19.850;2023-09-19T02:11:35;14.2;;;9.4;;
51194;SDS011;37259;49.972;19.850;2023-09-19T02:12:35;14.2;;;9.4;;
51194;SDS011;37259;49.972;19.850;2023-09-19T02:13:35;14.2;;;9.4;;
51194;SDS011;37259;49.972;19.850;2023-09-19T02:14:35;14.2;;;9.4;;
51194;SDS011;37259;49.972;19.850;2023-09-19T02:15:35;14.2;;;9.4;;
51194;SDS011;37259;49.972;19.850;2023-09-19T02:16:35;14.2;;;9.4;;
51194;SDS011;37259;49.972;19.850;2023-09-19T02:17:35;14.2;;;9.4;;
51194;SDS011;37259;49.972;19.850;2023-09-19T02:18:35;14.2;;;9.4;;
51194;SDS011;37259;49.972;19.850;2023-09-19T02:19:35;14.2;;;9.4;;
51194;SDS011;37259;49.972;19.850;2023-09-19T02:20:35;14.2;;;9.4;;
51194;SDS011;37259;49.972;19.850;2023-09-19T02:21:35;14.2;;;9.4;;
51194;SDS011;37259;49.972;19.850;2023-09-19T02:22:35;14.2;;;9.4;;
51194;SDS011;37259;49.972;19.850;2023-09-19T02:23:35;14.2;;;9.4;;
51194;SDS011;37259;49.972;19.850;2023-09-19T02:24:35;14.2;;;9.4;;
51194;SDS011;37259;49.972;19.850;2023-09-19T02:25:35;14.2;;;9.4;;
51194;SDS011;37259;49.972;19.850;2023-09-19T02:26:35;14.2;;;9.4;;
51194;SDS011;37259;49.972;19.850;2023-09-19T02:27:35;14.2;;;9.4;;
51194;SDS011;37259;49.972;19.850;2023-09-19T02:28:35;14.2;;;9.4;;
51194;SDS011;37259;49.972;19.850;2023-09-19T02:29:35;10.9;;;8.4;;
51194;SDS011;37259;49.972;19.850;2023-09-19T02:30:35;10.9;;;8.4;;
51194;SDS011;37259;49.972;19.850;2023-09-19T02:31:35;10.9;;;8.4;;
51194;SDS011;37259;49.972;19.850;2023-09-19T02:32:35;10.9;;;8.4;;
51194;SDS011;37259;49.972;19.850;2023-09-19T02:33:35;10.9;;;8.4;;
51194;SDS011;37259;49.972;19.850;2023-09-19T02:34:35;10.9;;;8.4;;
51194;SDS011;37259;49.972;19.850;2023-09-19T02:35:35;10.9;;;8.4;;
51194;SDS011;37259;49.972;19.850;2023-09-19T02:36:35;10.9;;;8.4;;
51194;SDS011;37259;49.972;19.850;2023-09-19T02:37:35;10.9;;;8.4;;
51194;SDS011;37259;49.972;19.850;2023-09-19T02:38:35;10.9;;;8.4;;
51194;SDS011;37259;49.972;19.850;2023-09-19T02:39:35;10.9;;;8.4;;
51194;SDS011;37259;49.972;19.850;2023-09-19T02:40:35;10.9;;;8.4;;
51194;SDS011;37259;49.972;19.850;2023-09-19T02:41:35;10.9;;;8.4;;
51194;SDS011;37259;49.972;19.850;2023-09-19T02:42:35;10.9;;;8.4;;
51194;SDS011;37259;49.972;19.850;2023-09-19T02:43:35;10.9;;;8.4;;
51194;SDS011;37259;49.972;19.850;2023-09-19T02:44:35;10.9;;;8.4;;
51194;SDS011;37259;49.972;19.850;2023-09-19T02:45:35;10.9;;;8.4;;
51194;SDS011;37259;49.972;19.850;2023-09-19T02:46:35;10.9;;;8.4;;
51194;SDS011;37259;49.972;19.850;2023-09-19T02:47:36;10.9;;;8.4;;
51194;SDS011;37259;49.972;19.850;2023-09-19T02:48:35;10.9;;;8.4;;
51194;SDS011;37259;49.972;19.850;2023-09-19T02:49:35;10.9;;;8.4;;
51194;SDS011;37259;49.972;19.850;2023-09-19T02:50:35;10.9;;;8.4;;
51194;SDS011;37259;49.972;19.850;2023-09-19T02:51:35;10.9;;;8.4;;
51194;SDS011;37259;49.972;19.850;2023-09-19T02:52:35;10.9;;;8.4;;
51194;SDS011;37259;49.972;19.850;2023-09-19T02:53:36;10.9;;;8.4;;
51194;SDS011;37259;49.972;19.850;2023-09-19T02:54:35;10.9;;;8.4;;
51194;SDS011;37259;49.972;19.850;2023-09-19T02:55:35;10.9;;;8.4;;
51194;SDS011;37259;49.972;19.850;2023-09-19T02:56:35;10.9;;;8.4;;
51194;SDS011;37259;49.972;19.850;2023-09-19T02:57:35;10.9;;;8.4;;
51194;SDS011;37259;49.972;19.850;2023-09-19T02:58:35;10.9;;;8.4;;
51194;SDS011;37259;49.972;19.850;2023-09-19T02:59:35;11.4;;;8.1;;
51194;SDS011;37259;49.972;19.850;2023-09-19T03:00:35;11.4;;;8.1;;
51194;SDS011;37259;49.972;19.850;2023-09-19T03:01:35;11.4;;;8.1;;
51194;SDS011;37259;49.972;19.850;2023-09-19T03:02:35;11.4;;;8.1;;
51194;SDS011;37259;49.972;19.850;2023-09-19T03:03:35;11.4;;;8.1;;
51194;SDS011;37259;49.972;19.850;2023-09-19T03:04:35;11.4;;;8.1;;
51194;SDS011;37259;49.972;19.850;2023-09-19T03:05:35;11.4;;;8.1;;
51194;SDS011;37259;49.972;19.850;2023-09-19T03:06:35;11.4;;;8.1;;
51194;SDS011;37259;49.972;19.850;2023-09-19T03:07:35;11.4;;;8.1;;
51194;SDS011;37259;49.972;19.850;2023-09-19T03:08:35;11.4;;;8.1;;
51194;SDS011;37259;49.972;19.850;2023-09-19T03:09:35;11.4;;;8.1;;
51194;SDS011;37259;49.972;19.850;2023-09-19T03:10:35;11.4;;;8.1;;
51194;SDS011;37259;49.972;19.850;2023-09-19T03:11:35;11.4;;;8.1;;
51194;SDS011;37259;49.972;19.850;2023-09-19T03:12:35;11.4;;;8.1;;
51194;SDS011;37259;49.972;19.850;2023-09-19T03:13:35;11.4;;;8.1;;
51194;SDS011;37259;49.972;19.850;2023-09-19T03:14:35;11.4;;;8.1;;
51194;SDS011;37259;49.972;19.850;2023-09-19T03:15:35;11.4;;;8.1;;
51194;SDS011;37259;49.972;19.850;2023-09-19T03:16:35;11.4;;;8.1;;
51194;SDS011;37259;49.972;19.850;2023-09-19T03:17:35;11.4;;;8.1;;
51194;SDS011;37259;49.972;19.850;2023-09-19T03:18:35;11.4;;;8.1;;
51194;SDS011;37259;49.972;19.850;2023-09-19T03:19:35;11.4;;;8.1;;
51194;SDS011;37259;49.972;19.850;2023-09-19T03:20:35;11.4;;;8.1;;
51194;SDS011;37259;49.972;19.850;2023-09-19T03:21:35;11.4;;;8.1;;
51194;SDS011;37259;49.972;19.850;2023-09-19T03:22:35;11.4;;;8.1;;
51194;SDS011;37259;49.972;19.850;2023-09-19T03:23:35;11.4;;;8.1;;
51194;SDS011;37259;49.972;19.850;2023-09-19T03:24:35;11.4;;;8.1;;
51194;SDS011;37259;49.972;19.850;2023-09-19T03:25:35;11.4;;;8.1;;
51194;SDS011;37259;49.972;19.850;2023-09-19T03:26:35;11.4;;;8.1;;
51194;SDS011;37259;49.972;19.850;2023-09-19T03:27:35;11.4;;;8.1;;
51194;SDS011;37259;49.972;19.850;2023-09-19T03:28:35;11.4;;;8.1;;
51194;SDS011;37259;49.972;19.850;2023-09-19T03:29:35;13;;;9.5;;
51194;SDS011;37259;49.972;19.850;2023-09-19T03:30:35;13;;;9.5;;
51194;SDS011;37259;49.972;19.850;2023-09-19T03:31:35;13;;;9.5;;
51194;SDS011;37259;49.972;19.850;2023-09-19T03:32:35;13;;;9.5;;
51194;SDS011;37259;49.972;19.850;2023-09-19T03:33:35;13;;;9.5;;
51194;SDS011;37259;49.972;19.850;2023-09-19T03:34:35;13;;;9.5;;
51194;SDS011;37259;49.972;19.850;2023-09-19T03:35:35;13;;;9.5;;
51194;SDS011;37259;49.972;19.850;2023-09-19T03:36:35;13;;;9.5;;
51194;SDS011;37259;49.972;19.850;2023-09-19T03:37:35;13;;;9.5;;
51194;SDS011;37259;49.972;19.850;2023-09-19T03:38:35;13;;;9.5;;
51194;SDS011;37259;49.972;19.850;2023-09-19T03:39:35;13;;;9.5;;
51194;SDS011;37259;49.972;19.850;2023-09-19T03:40:35;13;;;9.5;;
51194;SDS011;37259;49.972;19.850;2023-09-19T03:41:35;13;;;9.5;;
51194;SDS011;37259;49.972;19.850;2023-09-19T03:42:37;13;;;9.5;;
51194;SDS011;37259;49.972;19.850;2023-09-19T03:43:35;13;;;9.5;;
51194;SDS011;37259;49.972;19.850;2023-09-19T03:44:35;13;;;9.5;;
51194;SDS011;37259;49.972;19.850;2023-09-19T03:45:35;13;;;9.5;;
51194;SDS011;37259;49.972;19.850;2023-09-19T03:46:35;13;;;9.5;;
51194;SDS011;37259;49.972;19.850;2023-09-19T03:47:35;13;;;9.5;;
51194;SDS011;37259;49.972;19.850;2023-09-19T03:48:35;13;;;9.5;;
51194;SDS011;37259;49.972;19.850;2023-09-19T03:49:35;13;;;9.5;;
51194;SDS011;37259;49.972;19.850;2023-09-19T03:50:35;13;;;9.5;;
51194;SDS011;37259;49.972;19.850;2023-09-19T03:51:35;13;;;9.5;;
51194;SDS011;37259;49.972;19.850;2023-09-19T03:52:35;13;;;9.5;;
51194;SDS011;37259;49.972;19.850;2023-09-19T03:53:35;13;;;9.5;;
51194;SDS011;37259;49.972;19.850;2023-09-19T03:54:35;13;;;9.5;;
51194;SDS011;37259;49.972;19.850;2023-09-19T03:55:35;13;;;9.5;;
51194;SDS011;37259;49.972;19.850;2023-09-19T03:56:35;13;;;9.5;;
51194;SDS011;37259;49.972;19.850;2023-09-19T03:57:35;13;;;9.5;;
51194;SDS011;37259;49.972;19.850;2023-09-19T03:58:35;13;;;9.5;;
51194;SDS011;37259;49.972;19.850;2023-09-19T03:59:35;13.6;;;9.6;;
51194;SDS011;37259;49.972;19.850;2023-09-19T04:00:35;13.6;;;9.6;;
51194;SDS011;37259;49.972;19.850;2023-09-19T04:01:35;13.6;;;9.6;;
51194;SDS011;37259;49.972;19.850;2023-09-19T04:02:35;13.6;;;9.6;;
51194;SDS011;37259;49.972;19.850;2023-09-19T04:03:35;13.6;;;9.6;;
51194;SDS011;37259;49.972;19.850;2023-09-19T04:04:35;13.6;;;9.6;;
51194;SDS011;37259;49.972;19.850;2023-09-19T04:05:35;13.6;;;9.6;;
51194;SDS011;37259;49.972;19.850;2023-09-19T04:06:35;13.6;;;9.6;;
51194;SDS011;37259;49.972;19.850;2023-09-19T04:07:35;13.6;;;9.6;;
51194;SDS011;37259;49.972;19.850;2023-09-19T04:08:35;13.6;;;9.6;;
51194;SDS011;37259;49.972;19.850;2023-09-19T04:09:35;13.6;;;9.6;;
51194;SDS011;37259;49.972;19.850;2023-09-19T04:10:35;13.6;;;9.6;;
51194;SDS011;37259;49.972;19.850;2023-09-19T04:11:35;13.6;;;9.6;;
51194;SDS011;37259;49.972;19.850;2023-09-19T04:12:35;13.6;;;9.6;;
51194;SDS011;37259;49.972;19.850;2023-09-19T04:13:35;13.6;;;9.6;;
51194;SDS011;37259;49.972;19.850;2023-09-19T04:14:35;13.6;;;9.6;;
51194;SDS011;37259;49.972;19.850;2023-09-19T04:15:35;13.6;;;9.6;;
51194;SDS011;37259;49.972;19.850;2023-09-19T04:16:35;13.6;;;9.6;;
51194;SDS011;37259;49.972;19.850;2023-09-19T04:17:35;13.6;;;9.6;;
51194;SDS011;37259;49.972;19.850;2023-09-19T04:18:35;13.6;;;9.6;;
51194;SDS011;37259;49.972;19.850;2023-09-19T04:19:35;13.6;;;9.6;;
51194;SDS011;37259;49.972;19.850;2023-09-19T04:20:35;13.6;;;9.6;;
51194;SDS011;37259;49.972;19.850;2023-09-19T04:21:35;13.6;;;9.6;;
51194;SDS011;37259;49.972;19.850;2023-09-19T04:22:35;13.6;;;9.6;;
51194;SDS011;37259;49.972;19.850;2023-09-19T04:23:35;13.6;;;9.6;;
51194;SDS011;37259;49.972;19.850;2023-09-19T04:24:35;13.6;;;9.6;;
51194;SDS011;37259;49.972;19.850;2023-09-19T04:25:35;13.6;;;9.6;;
51194;SDS011;37259;49.972;19.850;2023-09-19T04:26:35;13.6;;;9.6;;
51194;SDS011;37259;49.972;19.850;2023-09-19T04:27:35;13.6;;;9.6;;
51194;SDS011;37259;49.972;19.850;2023-09-19T04:28:35;13.6;;;9.6;;
51194;SDS011;37259;49.972;19.850;2023-09-19T04:29:35;12.7;;;10.2;;
51194;SDS011;37259;49.972;19.850;2023-09-19T04:30:35;12.7;;;10.2;;
51194;SDS011;37259;49.972;19.850;2023-09-19T04:31:35;12.7;;;10.2;;
51194;SDS011;37259;49.972;19.850;2023-09-19T04:32:35;12.7;;;10.2;;
51194;SDS011;37259;49.972;19.850;2023-09-19T04:33:35;12.7;;;10.2;;
51194;SDS011;37259;49.972;19.850;2023-09-19T04:34:35;12.7;;;10.2;;
51194;SDS011;37259;49.972;19.850;2023-09-19T04:35:35;12.7;;;10.2;;
51194;SDS011;37259;49.972;19.850;2023-09-19T04:36:35;12.7;;;10.2;;
51194;SDS011;37259;49.972;19.850;2023-09-19T04:37:36;12.7;;;10.2;;
51194;SDS011;37259;49.972;19.850;2023-09-19T04:38:35;12.7;;;10.2;;
51194;SDS011;37259;49.972;19.850;2023-09-19T04:39:35;12.7;;;10.2;;
51194;SDS011;37259;49.972;19.850;2023-09-19T04:40:35;12.7;;;10.2;;
51194;SDS011;37259;49.972;19.850;2023-09-19T04:41:35;12.7;;;10.2;;
51194;SDS011;37259;49.972;19.850;2023-09-19T04:42:35;12.7;;;10.2;;
51194;SDS011;37259;49.972;19.850;2023-09-19T04:43:35;12.7;;;10.2;;
51194;SDS011;37259;49.972;19.850;2023-09-19T04:44:35;12.7;;;10.2;;
51194;SDS011;37259;49.972;19.850;2023-09-19T04:45:35;12.7;;;10.2;;
51194;SDS011;37259;49.972;19.850;2023-09-19T04:46:35;12.7;;;10.2;;
51194;SDS011;37259;49.972;19.850;2023-09-19T04:47:35;12.7;;;10.2;;
51194;SDS011;37259;49.972;19.850;2023-09-19T04:48:35;12.7;;;10.2;;
51194;SDS011;37259;49.972;19.850;2023-09-19T04:49:35;12.7;;;10.2;;
51194;SDS011;37259;49.972;19.850;2023-09-19T04:50:35;12.7;;;10.2;;
51194;SDS011;37259;49.972;19.850;2023-09-19T04:51:35;12.7;;;10.2;;
51194;SDS011;37259;49.972;19.850;2023-09-19T04:52:35;12.7;;;10.2;;
51194;SDS011;37259;49.972;19.850;2023-09-19T04:53:35;12.7;;;10.2;;
51194;SDS011;37259;49.972;19.850;2023-09-19T04:54:35;12.7;;;10.2;;
51194;SDS011;37259;49.972;19.850;2023-09-19T04:55:35;12.7;;;10.2;;
51194;SDS011;37259;49.972;19.850;2023-09-19T04:56:35;12.7;;;10.2;;
51194;SDS011;37259;49.972;19.850;2023-09-19T04:57:35;12.7;;;10.2;;
51194;SDS011;37259;49.972;19.850;2023-09-19T04:58:35;12.7;;;10.2;;
51194;SDS011;37259;49.972;19.850;2023-09-19T04:59:35;14.4;;;10.4;;
51194;SDS011;37259;49.972;19.850;2023-09-19T05:00:35;14.4;;;10.4;;
51194;SDS011;37259;49.972;19.850;2023-09-19T05:01:35;14.4;;;10.4;;
51194;SDS011;37259;49.972;19.850;2023-09-19T05:02:35;14.4;;;10.4;;
51194;SDS011;37259;49.972;19.850;2023-09-19T05:03:35;14.4;;;10.4;;
51194;SDS011;37259;49.972;19.850;2023-09-19T05:04:35;14.4;;;10.4;;
51194;SDS011;37259;49.972;19.850;2023-09-19T05:05:35;14.4;;;10.4;;
51194;SDS011;37259;49.972;19.850;2023-09-19T05:06:35;14.4;;;10.4;;
51194;SDS011;37259;49.972;19.850;2023-09-19T05:07:35;14.4;;;10.4;;
51194;SDS011;37259;49.972;19.850;2023-09-19T05:08:35;14.4;;;10.4;;
51194;SDS011;37259;49.972;19.850;2023-09-19T05:09:35;14.4;;;10.4;;
51194;SDS011;37259;49.972;19.850;2023-09-19T05:10:35;14.4;;;10.4;;
51194;SDS011;37259;49.972;19.850;2023-09-19T05:11:35;14.4;;;10.4;;
51194;SDS011;37259;49.972;19.850;2023-09-19T05:12:35;14.4;;;10.4;;
51194;SDS011;37259;49.972;19.850;2023-09-19T05:13:35;14.4;;;10.4;;
51194;SDS011;37259;49.972;19.850;2023-09-19T05:14:35;14.4;;;10.4;;
51194;SDS011;37259;49.972;19.850;2023-09-19T05:15:35;14.4;;;10.4;;
51194;SDS011;37259;49.972;19.850;2023-09-19T05:16:35;14.4;;;10.4;;
51194;SDS011;37259;49.972;19.850;2023-09-19T05:17:35;14.4;;;10.4;;
51194;SDS011;37259;49.972;19.850;2023-09-19T05:18:35;14.4;;;10.4;;
51194;SDS011;37259;49.972;19.850;2023-09-19T05:19:35;14.4;;;10.4;;
51194;SDS011;37259;49.972;19.850;2023-09-19T05:20:35;14.4;;;10.4;;
51194;SDS011;37259;49.972;19.850;2023-09-19T05:21:35;14.4;;;10.4;;
51194;SDS011;37259;49.972;19.850;2023-09-19T05:22:35;14.4;;;10.4;;
51194;SDS011;37259;49.972;19.850;2023-09-19T05:23:35;14.4;;;10.4;;
51194;SDS011;37259;49.972;19.850;2023-09-19T05:24:35;14.4;;;10.4;;
51194;SDS011;37259;49.972;19.850;2023-09-19T05:25:36;14.4;;;10.4;;
51194;SDS011;37259;49.972;19.850;2023-09-19T05:26:35;14.4;;;10.4;;
51194;SDS011;37259;49.972;19.850;2023-09-19T05:27:35;14.4;;;10.4;;
51194;SDS011;37259;49.972;19.850;2023-09-19T05:28:35;14.4;;;10.4;;
51194;SDS011;37259;49.972;19.850;2023-09-19T05:29:35;16.3;;;11.5;;
51194;SDS011;37259;49.972;19.850;2023-09-19T05:30:36;16.3;;;11.5;;
51194;SDS011;37259;49.972;19.850;2023-09-19T05:31:35;16.3;;;11.5;;
51194;SDS011;37259;49.972;19.850;2023-09-19T05:32:35;16.3;;;11.5;;
51194;SDS011;37259;49.972;19.850;2023-09-19T05:33:35;16.3;;;11.5;;
51194;SDS011;37259;49.972;19.850;2023-09-19T05:34:35;16.3;;;11.5;;
51194;SDS011;37259;49.972;19.850;2023-09-19T05:35:35;16.3;;;11.5;;
51194;SDS011;37259;49.972;19.850;2023-09-19T05:36:35;16.3;;;11.5;;
51194;SDS011;37259;49.972;19.850;2023-09-19T05:37:35;16.3;;;11.5;;
51194;SDS011;37259;49.972;19.850;2023-09-19T05:38:35;16.3;;;11.5;;
51194;SDS011;37259;49.972;19.850;2023-09-19T05:39:35;16.3;;;11.5;;
51194;SDS011;37259;49.972;19.850;2023-09-19T05:40:35;16.3;;;11.5;;
51194;SDS011;37259;49.972;19.850;2023-09-19T05:41:35;16.3;;;11.5;;
51194;SDS011;37259;49.972;19.850;2023-09-19T05:42:35;16.3;;;11.5;;
51194;SDS011;37259;49.972;19.850;2023-09-19T05:43:35;16.3;;;11.5;;
51194;SDS011;37259;49.972;19.850;2023-09-19T05:44:35;16.3;;;11.5;;
51194;SDS011;37259;49.972;19.850;2023-09-19T05:45:35;16.3;;;11.5;;
51194;SDS011;37259;49.972;19.850;2023-09-19T05:46:35;16.3;;;11.5;;
51194;SDS011;37259;49.972;19.850;2023-09-19T05:47:35;16.3;;;11.5;;
51194;SDS011;37259;49.972;19.850;2023-09-19T05:48:35;16.3;;;11.5;;
51194;SDS011;37259;49.972;19.850;2023-09-19T05:49:35;16.3;;;11.5;;
51194;SDS011;37259;49.972;19.850;2023-09-19T05:50:35;16.3;;;11.5;;
51194;SDS011;37259;49.972;19.850;2023-09-19T05:51:35;16.3;;;11.5;;
51194;SDS011;37259;49.972;19.850;2023-09-19T05:52:35;16.3;;;11.5;;
51194;SDS011;37259;49.972;19.850;2023-09-19T05:53:35;16.3;;;11.5;;
51194;SDS011;37259;49.972;19.850;2023-09-19T05:54:35;16.3;;;11.5;;
51194;SDS011;37259;49.972;19.850;2023-09-19T05:55:35;16.3;;;11.5;;
51194;SDS011;37259;49.972;19.850;2023-09-19T05:56:35;16.3;;;11.5;;
51194;SDS011;37259;49.972;19.850;2023-09-19T05:57:35;16.3;;;11.5;;
51194;SDS011;37259;49.972;19.850;2023-09-19T05:58:35;16.3;;;11.5;;
51194;SDS011;37259;49.972;19.850;2023-09-19T05:59:35;16.5;;;12.6;;
51194;SDS011;37259;49.972;19.850;2023-09-19T06:00:35;16.5;;;12.6;;